Aeroporto :
LOGIN :

Iscrizione | Disclaimer

   EN    FR    IT 

 










Sommario :    VFR   VFR Marginale   IFR   IFR Intensivo   IFR Molto Intensivo
Visibilità : 
Base nubi : 
>= 8 km
>= 3000ft
5 / 8 km
1000 / 3000 ft
1500m / 5 km
500 / 1000 ft
800 / 1500m
200 / 500 ft
< 800m
< 200 ft
Simboli :   Temporali  Nebbia  Neve Forte  Precipitazioni Forti  Vento > 20 kt
SIGMETs :   Varie  Temporali  Ghiacco  Turbolenza  Onda orograficha  Ceneri Vulcaniche






- Altitudine del aeroporto : 336 ft
- Codice IATA : GCI


EGJB - Guernsey

ULTIMO METAR :
  • 140450Z 15005KT 9999 RA SCT008 BKN033 12/12 Q1007

METARs OBSOLETI :
  • 140420Z 16007KT 9999 RA FEW008 BKN040 12/11 Q1007
  • 140350Z 16009KT 9999 -RA FEW009 SCT012 13/12 Q1007
  • 140320Z 17011KT 9999 -RA SCT012 BKN028 13/12 Q1008
  • 140250Z 17013KT 9999 -RA BKN012 13/12 Q1008 RERA

TAF TAF EGJB
Valido dal 14 a 03 ore il 14 a 12 ore UTC


140205Z 1403/1412 14013KT 8000 RA BKN012
PROB30
TEMPO 1404/1409 3000 BKN003
BECMG 1407/1409 05015KT
PROB30
TEMPO 1408/1412 +RA BKN040CB
BECMG 1409/1411 35015KT
ATIS : +44 1481 238 957



MetMap, La meteo Aeronautica in un colpo d'occhio ! - Copyright ORBIFLY Dicembre 2007 - Disclaimer

ORBIFLY MET'MAP TEAM :

Programmazione e sviluppo : Alexandra Zaïnal
Concezione e sviluppo : Baudouin d'Aumeries
Co-Programmazione e sviluppo : Marc-Olivier Méhu
Supporto tecnico e logistico : Manuel Goepfert
Aiuto per la traduzione : Arnaldo La Scala

Contatto : metmap@orbifly.com




FONTI E CREDITI :

   NOAA